sensor_id;sensor_type;location;lat;lon;timestamp;temperature;humidity
12436;DHT22;6282;51.440;6.938;2023-08-12T00:00:47;21.90;99.90
12436;DHT22;6282;51.440;6.938;2023-08-12T00:03:14;21.90;99.90
12436;DHT22;6282;51.440;6.938;2023-08-12T00:05:41;21.80;99.90
12436;DHT22;6282;51.440;6.938;2023-08-12T00:08:09;21.60;99.90
12436;DHT22;6282;51.440;6.938;2023-08-12T00:10:36;21.70;99.90
12436;DHT22;6282;51.440;6.938;2023-08-12T00:13:04;21.70;99.90
12436;DHT22;6282;51.440;6.938;2023-08-12T00:15:31;21.70;99.90
12436;DHT22;6282;51.440;6.938;2023-08-12T00:17:58;21.70;99.90
12436;DHT22;6282;51.440;6.938;2023-08-12T00:20:25;21.80;99.90
12436;DHT22;6282;51.440;6.938;2023-08-12T00:22:53;21.70;99.90
12436;DHT22;6282;51.440;6.938;2023-08-12T00:25:19;21.80;99.90
12436;DHT22;6282;51.440;6.938;2023-08-12T00:27:46;21.80;99.90
12436;DHT22;6282;51.440;6.938;2023-08-12T00:30:15;21.80;99.90
12436;DHT22;6282;51.440;6.938;2023-08-12T00:32:42;21.90;99.90
12436;DHT22;6282;51.440;6.938;2023-08-12T00:35:09;21.80;99.90
12436;DHT22;6282;51.440;6.938;2023-08-12T00:37:36;21.90;99.90
12436;DHT22;6282;51.440;6.938;2023-08-12T00:40:03;21.80;99.90
12436;DHT22;6282;51.440;6.938;2023-08-12T00:42:30;21.90;99.90
12436;DHT22;6282;51.440;6.938;2023-08-12T00:44:57;21.90;99.90
12436;DHT22;6282;51.440;6.938;2023-08-12T00:47:26;21.80;99.90
12436;DHT22;6282;51.440;6.938;2023-08-12T00:49:54;21.80;99.90
12436;DHT22;6282;51.440;6.938;2023-08-12T00:52:23;21.70;99.90
12436;DHT22;6282;51.440;6.938;2023-08-12T00:54:50;21.60;99.90
12436;DHT22;6282;51.440;6.938;2023-08-12T00:57:17;21.60;99.90
12436;DHT22;6282;51.440;6.938;2023-08-12T00:59:44;21.50;99.90
12436;DHT22;6282;51.440;6.938;2023-08-12T01:02:12;21.40;99.90
12436;DHT22;6282;51.440;6.938;2023-08-12T01:04:40;21.40;99.90
12436;DHT22;6282;51.440;6.938;2023-08-12T01:07:07;21.50;99.90
12436;DHT22;6282;51.440;6.938;2023-08-12T01:09:34;21.20;99.90
12436;DHT22;6282;51.440;6.938;2023-08-12T01:12:05;21.70;99.90
12436;DHT22;6282;51.440;6.938;2023-08-12T01:14:37;21.40;99.90
12436;DHT22;6282;51.440;6.938;2023-08-12T01:17:08;21.50;99.90
12436;DHT22;6282;51.440;6.938;2023-08-12T01:19:37;21.50;99.90
12436;DHT22;6282;51.440;6.938;2023-08-12T01:22:09;21.60;99.90
12436;DHT22;6282;51.440;6.938;2023-08-12T01:24:38;21.60;99.90
12436;DHT22;6282;51.440;6.938;2023-08-12T01:27:05;21.60;99.90
12436;DHT22;6282;51.440;6.938;2023-08-12T01:29:33;21.60;99.90
12436;DHT22;6282;51.440;6.938;2023-08-12T01:32:07;21.60;99.90
12436;DHT22;6282;51.440;6.938;2023-08-12T01:34:42;21.60;99.90
12436;DHT22;6282;51.440;6.938;2023-08-12T01:37:13;21.60;99.90
12436;DHT22;6282;51.440;6.938;2023-08-12T01:39:42;21.70;99.90
12436;DHT22;6282;51.440;6.938;2023-08-12T01:42:10;21.70;99.90
12436;DHT22;6282;51.440;6.938;2023-08-12T01:44:37;21.60;99.90
12436;DHT22;6282;51.440;6.938;2023-08-12T01:47:05;21.70;99.90
12436;DHT22;6282;51.440;6.938;2023-08-12T01:49:32;21.60;99.90
12436;DHT22;6282;51.440;6.938;2023-08-12T01:51:59;21.50;99.90
12436;DHT22;6282;51.440;6.938;2023-08-12T01:54:26;21.60;99.90
12436;DHT22;6282;51.440;6.938;2023-08-12T01:57:00;21.50;99.90
12436;DHT22;6282;51.440;6.938;2023-08-12T01:59:27;21.50;99.90
12436;DHT22;6282;51.440;6.938;2023-08-12T02:01:54;21.40;99.90
12436;DHT22;6282;51.440;6.938;2023-08-12T02:04:20;21.50;99.90
12436;DHT22;6282;51.440;6.938;2023-08-12T02:06:48;21.50;99.90
12436;DHT22;6282;51.440;6.938;2023-08-12T02:09:16;21.50;99.90
12436;DHT22;6282;51.440;6.938;2023-08-12T02:11:42;21.50;99.90
12436;DHT22;6282;51.440;6.938;2023-08-12T02:14:11;21.40;99.90
12436;DHT22;6282;51.440;6.938;2023-08-12T02:16:38;21.60;99.90
12436;DHT22;6282;51.440;6.938;2023-08-12T02:19:04;21.50;99.90
12436;DHT22;6282;51.440;6.938;2023-08-12T02:21:31;21.50;99.90
12436;DHT22;6282;51.440;6.938;2023-08-12T02:23:59;21.50;99.90
12436;DHT22;6282;51.440;6.938;2023-08-12T02:26:26;21.50;99.90
12436;DHT22;6282;51.440;6.938;2023-08-12T02:28:53;21.60;99.90
12436;DHT22;6282;51.440;6.938;2023-08-12T02:31:21;21.60;99.90
12436;DHT22;6282;51.440;6.938;2023-08-12T02:33:48;21.50;99.90
12436;DHT22;6282;51.440;6.938;2023-08-12T02:36:15;21.50;99.90
12436;DHT22;6282;51.440;6.938;2023-08-12T02:38:43;21.40;99.90
12436;DHT22;6282;51.440;6.938;2023-08-12T02:41:10;21.50;99.90
12436;DHT22;6282;51.440;6.938;2023-08-12T02:43:36;21.50;99.90
12436;DHT22;6282;51.440;6.938;2023-08-12T02:46:03;21.50;99.90
12436;DHT22;6282;51.440;6.938;2023-08-12T02:48:31;21.50;99.90
12436;DHT22;6282;51.440;6.938;2023-08-12T02:50:59;21.40;99.90
12436;DHT22;6282;51.440;6.938;2023-08-12T02:53:26;21.50;99.90
12436;DHT22;6282;51.440;6.938;2023-08-12T02:55:53;21.40;99.90
12436;DHT22;6282;51.440;6.938;2023-08-12T02:58:19;21.40;99.90
12436;DHT22;6282;51.440;6.938;2023-08-12T03:00:47;21.40;99.90
12436;DHT22;6282;51.440;6.938;2023-08-12T03:03:13;21.40;99.90
12436;DHT22;6282;51.440;6.938;2023-08-12T03:05:43;21.40;99.90
12436;DHT22;6282;51.440;6.938;2023-08-12T03:08:11;21.40;99.90
12436;DHT22;6282;51.440;6.938;2023-08-12T03:10:38;21.30;99.90
12436;DHT22;6282;51.440;6.938;2023-08-12T03:13:05;21.30;99.90
12436;DHT22;6282;51.440;6.938;2023-08-12T03:15:32;21.30;99.90
12436;DHT22;6282;51.440;6.938;2023-08-12T03:17:58;21.20;99.90
12436;DHT22;6282;51.440;6.938;2023-08-12T03:20:25;21.20;99.90
12436;DHT22;6282;51.440;6.938;2023-08-12T03:22:53;21.10;99.90
12436;DHT22;6282;51.440;6.938;2023-08-12T03:25:20;21.20;99.90
12436;DHT22;6282;51.440;6.938;2023-08-12T03:27:49;21.10;99.90
12436;DHT22;6282;51.440;6.938;2023-08-12T03:30:16;21.20;99.90
12436;DHT22;6282;51.440;6.938;2023-08-12T03:32:43;21.50;99.90
12436;DHT22;6282;51.440;6.938;2023-08-12T03:35:09;21.20;99.90
12436;DHT22;6282;51.440;6.938;2023-08-12T03:37:36;21.30;99.90
12436;DHT22;6282;51.440;6.938;2023-08-12T03:40:06;21.40;99.90
12436;DHT22;6282;51.440;6.938;2023-08-12T03:42:33;21.30;99.90
12436;DHT22;6282;51.440;6.938;2023-08-12T03:44:59;21.30;99.90
12436;DHT22;6282;51.440;6.938;2023-08-12T03:47:26;21.30;99.90
12436;DHT22;6282;51.440;6.938;2023-08-12T03:49:53;21.30;99.90
12436;DHT22;6282;51.440;6.938;2023-08-12T03:52:20;21.30;99.90
12436;DHT22;6282;51.440;6.938;2023-08-12T03:54:47;21.30;99.90
12436;DHT22;6282;51.440;6.938;2023-08-12T03:57:15;21.20;99.90
12436;DHT22;6282;51.440;6.938;2023-08-12T03:59:42;21.30;99.90
12436;DHT22;6282;51.440;6.938;2023-08-12T04:02:10;21.40;99.90
12436;DHT22;6282;51.440;6.938;2023-08-12T04:04:37;21.30;99.90
12436;DHT22;6282;51.440;6.938;2023-08-12T04:07:04;21.20;99.90
12436;DHT22;6282;51.440;6.938;2023-08-12T04:09:30;21.20;99.90
12436;DHT22;6282;51.440;6.938;2023-08-12T04:11:57;21.20;99.90
12436;DHT22;6282;51.440;6.938;2023-08-12T04:14:25;21.10;99.90
12436;DHT22;6282;51.440;6.938;2023-08-12T04:16:52;21.30;99.90
12436;DHT22;6282;51.440;6.938;2023-08-12T04:19:19;21.20;99.90
12436;DHT22;6282;51.440;6.938;2023-08-12T04:21:47;21.20;99.90
12436;DHT22;6282;51.440;6.938;2023-08-12T04:24:13;21.20;99.90
12436;DHT22;6282;51.440;6.938;2023-08-12T04:26:40;21.30;99.90
12436;DHT22;6282;51.440;6.938;2023-08-12T04:29:07;21.30;99.90
12436;DHT22;6282;51.440;6.938;2023-08-12T04:31:35;21.30;99.90
12436;DHT22;6282;51.440;6.938;2023-08-12T04:34:02;21.40;99.90
12436;DHT22;6282;51.440;6.938;2023-08-12T04:36:30;21.30;99.90
12436;DHT22;6282;51.440;6.938;2023-08-12T04:38:57;21.40;99.90
12436;DHT22;6282;51.440;6.938;2023-08-12T04:41:24;21.40;99.90
12436;DHT22;6282;51.440;6.938;2023-08-12T04:43:50;21.40;99.90
12436;DHT22;6282;51.440;6.938;2023-08-12T04:46:17;21.50;99.90
12436;DHT22;6282;51.440;6.938;2023-08-12T04:48:45;21.50;99.90
12436;DHT22;6282;51.440;6.938;2023-08-12T04:51:12;21.50;99.90
12436;DHT22;6282;51.440;6.938;2023-08-12T04:53:40;21.60;99.90
12436;DHT22;6282;51.440;6.938;2023-08-12T04:56:06;21.50;99.90
12436;DHT22;6282;51.440;6.938;2023-08-12T04:58:33;21.60;99.90
12436;DHT22;6282;51.440;6.938;2023-08-12T05:01:00;21.60;99.90
12436;DHT22;6282;51.440;6.938;2023-08-12T05:03:28;21.70;99.90
12436;DHT22;6282;51.440;6.938;2023-08-12T05:05:56;21.70;99.90
12436;DHT22;6282;51.440;6.938;2023-08-12T05:08:23;21.80;99.90
12436;DHT22;6282;51.440;6.938;2023-08-12T05:10:50;21.70;99.90
12436;DHT22;6282;51.440;6.938;2023-08-12T05:13:17;21.80;99.90
12436;DHT22;6282;51.440;6.938;2023-08-12T05:15:45;21.90;99.90
12436;DHT22;6282;51.440;6.938;2023-08-12T05:18:12;21.80;99.90
12436;DHT22;6282;51.440;6.938;2023-08-12T05:20:39;21.80;99.90
12436;DHT22;6282;51.440;6.938;2023-08-12T05:23:07;21.80;99.90
12436;DHT22;6282;51.440;6.938;2023-08-12T05:25:34;21.70;99.90
12436;DHT22;6282;51.440;6.938;2023-08-12T05:28:01;21.60;99.90
12436;DHT22;6282;51.440;6.938;2023-08-12T05:30:28;21.70;99.90
12436;DHT22;6282;51.440;6.938;2023-08-12T05:32:55;21.50;99.90
12436;DHT22;6282;51.440;6.938;2023-08-12T05:35:22;21.40;99.90
12436;DHT22;6282;51.440;6.938;2023-08-12T05:37:48;21.30;99.90
12436;DHT22;6282;51.440;6.938;2023-08-12T05:40:16;21.30;99.90
12436;DHT22;6282;51.440;6.938;2023-08-12T05:42:43;21.10;99.90
12436;DHT22;6282;51.440;6.938;2023-08-12T05:45:10;21.20;99.90
12436;DHT22;6282;51.440;6.938;2023-08-12T05:47:37;21.10;99.90
12436;DHT22;6282;51.440;6.938;2023-08-12T05:50:04;20.90;99.90
12436;DHT22;6282;51.440;6.938;2023-08-12T05:52:33;21.10;99.90
12436;DHT22;6282;51.440;6.938;2023-08-12T05:54:59;21.10;99.90
12436;DHT22;6282;51.440;6.938;2023-08-12T05:57:28;21.20;99.90
12436;DHT22;6282;51.440;6.938;2023-08-12T05:59:55;21.30;99.90
12436;DHT22;6282;51.440;6.938;2023-08-12T06:02:22;21.30;99.90
12436;DHT22;6282;51.440;6.938;2023-08-12T06:04:49;21.40;99.90
12436;DHT22;6282;51.440;6.938;2023-08-12T06:07:16;21.40;99.90
12436;DHT22;6282;51.440;6.938;2023-08-12T06:09:43;21.50;99.90
12436;DHT22;6282;51.440;6.938;2023-08-12T06:12:10;21.40;99.90
12436;DHT22;6282;51.440;6.938;2023-08-12T06:14:38;21.30;99.90
12436;DHT22;6282;51.440;6.938;2023-08-12T06:17:05;21.20;99.90
12436;DHT22;6282;51.440;6.938;2023-08-12T06:19:32;21.20;99.90
12436;DHT22;6282;51.440;6.938;2023-08-12T06:21:59;21.20;99.90
12436;DHT22;6282;51.440;6.938;2023-08-12T06:24:35;21.20;99.90
12436;DHT22;6282;51.440;6.938;2023-08-12T06:27:01;21.10;99.90
12436;DHT22;6282;51.440;6.938;2023-08-12T06:29:28;21.00;99.90
12436;DHT22;6282;51.440;6.938;2023-08-12T06:31:56;21.10;99.90
12436;DHT22;6282;51.440;6.938;2023-08-12T06:34:23;21.00;99.90
12436;DHT22;6282;51.440;6.938;2023-08-12T06:36:50;20.90;99.90
12436;DHT22;6282;51.440;6.938;2023-08-12T06:39:17;21.00;99.90
12436;DHT22;6282;51.440;6.938;2023-08-12T06:41:44;21.00;99.90
12436;DHT22;6282;51.440;6.938;2023-08-12T06:44:10;20.90;99.90
12436;DHT22;6282;51.440;6.938;2023-08-12T06:46:37;20.90;99.90
12436;DHT22;6282;51.440;6.938;2023-08-12T06:49:06;20.90;99.90
12436;DHT22;6282;51.440;6.938;2023-08-12T06:51:33;21.00;99.90
12436;DHT22;6282;51.440;6.938;2023-08-12T06:54:00;20.90;99.90
12436;DHT22;6282;51.440;6.938;2023-08-12T06:56:27;20.90;99.90
12436;DHT22;6282;51.440;6.938;2023-08-12T06:58:53;20.90;99.90
12436;DHT22;6282;51.440;6.938;2023-08-12T07:01:20;21.00;99.90
12436;DHT22;6282;51.440;6.938;2023-08-12T07:03:48;20.90;99.90
12436;DHT22;6282;51.440;6.938;2023-08-12T07:06:16;20.90;99.90
12436;DHT22;6282;51.440;6.938;2023-08-12T07:08:43;20.80;99.90
12436;DHT22;6282;51.440;6.938;2023-08-12T07:11:10;20.80;99.90
12436;DHT22;6282;51.440;6.938;2023-08-12T07:13:36;20.80;99.90
12436;DHT22;6282;51.440;6.938;2023-08-12T07:16:03;20.80;99.90
12436;DHT22;6282;51.440;6.938;2023-08-12T07:18:31;20.90;99.90
12436;DHT22;6282;51.440;6.938;2023-08-12T07:20:58;20.90;99.90
12436;DHT22;6282;51.440;6.938;2023-08-12T07:23:26;20.90;99.90
12436;DHT22;6282;51.440;6.938;2023-08-12T07:25:53;21.00;99.90
12436;DHT22;6282;51.440;6.938;2023-08-12T07:30:55;21.10;99.90
12436;DHT22;6282;51.440;6.938;2023-08-12T07:33:21;21.00;99.90
12436;DHT22;6282;51.440;6.938;2023-08-12T07:35:48;20.60;99.90
12436;DHT22;6282;51.440;6.938;2023-08-12T07:38:15;21.10;99.90
12436;DHT22;6282;51.440;6.938;2023-08-12T07:40:43;21.00;99.90
12436;DHT22;6282;51.440;6.938;2023-08-12T07:43:10;20.90;99.90
12436;DHT22;6282;51.440;6.938;2023-08-12T07:45:37;20.90;99.90
12436;DHT22;6282;51.440;6.938;2023-08-12T07:48:04;21.00;99.90
12436;DHT22;6282;51.440;6.938;2023-08-12T07:50:31;21.20;99.90
12436;DHT22;6282;51.440;6.938;2023-08-12T07:52:58;21.20;99.90
12436;DHT22;6282;51.440;6.938;2023-08-12T07:55:26;21.40;99.90
12436;DHT22;6282;51.440;6.938;2023-08-12T07:57:54;21.60;99.90
12436;DHT22;6282;51.440;6.938;2023-08-12T08:00:22;21.60;99.90
12436;DHT22;6282;51.440;6.938;2023-08-12T08:02:48;21.80;99.90
12436;DHT22;6282;51.440;6.938;2023-08-12T08:05:15;21.90;99.90
12436;DHT22;6282;51.440;6.938;2023-08-12T08:07:42;21.90;99.90
12436;DHT22;6282;51.440;6.938;2023-08-12T08:10:10;21.70;99.90
12436;DHT22;6282;51.440;6.938;2023-08-12T08:12:37;21.60;99.90
12436;DHT22;6282;51.440;6.938;2023-08-12T08:15:06;21.70;99.90
12436;DHT22;6282;51.440;6.938;2023-08-12T08:17:33;21.50;99.90
12436;DHT22;6282;51.440;6.938;2023-08-12T08:20:00;21.70;99.90
12436;DHT22;6282;51.440;6.938;2023-08-12T08:22:28;21.60;99.90
12436;DHT22;6282;51.440;6.938;2023-08-12T08:24:55;21.70;99.90
12436;DHT22;6282;51.440;6.938;2023-08-12T08:27:21;21.60;99.90
12436;DHT22;6282;51.440;6.938;2023-08-12T08:29:49;21.50;99.90
12436;DHT22;6282;51.440;6.938;2023-08-12T08:32:17;21.10;99.90
12436;DHT22;6282;51.440;6.938;2023-08-12T08:34:44;21.20;99.90
12436;DHT22;6282;51.440;6.938;2023-08-12T08:37:11;21.40;99.90
12436;DHT22;6282;51.440;6.938;2023-08-12T08:39:38;21.30;99.90
12436;DHT22;6282;51.440;6.938;2023-08-12T08:42:05;21.30;99.90
12436;DHT22;6282;51.440;6.938;2023-08-12T08:44:33;21.50;99.90
12436;DHT22;6282;51.440;6.938;2023-08-12T08:47:01;21.40;99.90
12436;DHT22;6282;51.440;6.938;2023-08-12T08:49:30;21.80;99.90
12436;DHT22;6282;51.440;6.938;2023-08-12T08:51:59;22.10;99.90
12436;DHT22;6282;51.440;6.938;2023-08-12T08:54:26;21.80;99.90
12436;DHT22;6282;51.440;6.938;2023-08-12T08:56:53;21.90;99.90
12436;DHT22;6282;51.440;6.938;2023-08-12T08:59:20;21.70;99.90
12436;DHT22;6282;51.440;6.938;2023-08-12T09:01:49;21.90;99.90
12436;DHT22;6282;51.440;6.938;2023-08-12T09:04:18;21.90;99.90
12436;DHT22;6282;51.440;6.938;2023-08-12T09:06:49;21.90;99.90
12436;DHT22;6282;51.440;6.938;2023-08-12T09:09:20;22.20;99.90
12436;DHT22;6282;51.440;6.938;2023-08-12T09:11:49;21.60;99.90
12436;DHT22;6282;51.440;6.938;2023-08-12T09:14:17;21.70;99.90
12436;DHT22;6282;51.440;6.938;2023-08-12T09:16:45;21.80;99.90
12436;DHT22;6282;51.440;6.938;2023-08-12T09:19:12;21.90;99.90
12436;DHT22;6282;51.440;6.938;2023-08-12T09:21:39;21.70;99.90
12436;DHT22;6282;51.440;6.938;2023-08-12T09:24:08;21.80;99.90
12436;DHT22;6282;51.440;6.938;2023-08-12T09:26:35;21.80;99.90
12436;DHT22;6282;51.440;6.938;2023-08-12T09:29:02;21.80;99.90
12436;DHT22;6282;51.440;6.938;2023-08-12T09:31:31;21.60;99.90
12436;DHT22;6282;51.440;6.938;2023-08-12T09:33:59;21.70;99.90
12436;DHT22;6282;51.440;6.938;2023-08-12T09:36:29;21.70;99.90
12436;DHT22;6282;51.440;6.938;2023-08-12T09:38:56;21.60;99.90
12436;DHT22;6282;51.440;6.938;2023-08-12T09:41:26;21.70;99.90
12436;DHT22;6282;51.440;6.938;2023-08-12T09:43:55;21.60;99.90
12436;DHT22;6282;51.440;6.938;2023-08-12T09:46:23;21.50;99.90
12436;DHT22;6282;51.440;6.938;2023-08-12T09:48:50;21.40;99.90
12436;DHT22;6282;51.440;6.938;2023-08-12T09:51:19;21.20;99.90
12436;DHT22;6282;51.440;6.938;2023-08-12T09:53:49;21.20;99.90
12436;DHT22;6282;51.440;6.938;2023-08-12T09:56:18;21.20;99.90
12436;DHT22;6282;51.440;6.938;2023-08-12T09:58:49;21.20;99.90
12436;DHT22;6282;51.440;6.938;2023-08-12T10:01:18;21.20;99.90
12436;DHT22;6282;51.440;6.938;2023-08-12T10:03:49;21.20;99.90
12436;DHT22;6282;51.440;6.938;2023-08-12T10:06:17;21.30;99.90
12436;DHT22;6282;51.440;6.938;2023-08-12T10:08:46;21.40;99.90
12436;DHT22;6282;51.440;6.938;2023-08-12T10:11:14;21.30;99.90
12436;DHT22;6282;51.440;6.938;2023-08-12T10:13:42;21.60;99.90
12436;DHT22;6282;51.440;6.938;2023-08-12T10:16:10;21.80;99.90
12436;DHT22;6282;51.440;6.938;2023-08-12T10:18:39;22.10;99.90
12436;DHT22;6282;51.440;6.938;2023-08-12T10:21:09;22.30;99.90
12436;DHT22;6282;51.440;6.938;2023-08-12T10:23:37;22.30;99.90
12436;DHT22;6282;51.440;6.938;2023-08-12T10:26:05;22.50;99.90
12436;DHT22;6282;51.440;6.938;2023-08-12T10:28:33;22.50;99.90
12436;DHT22;6282;51.440;6.938;2023-08-12T10:31:03;22.60;99.90
12436;DHT22;6282;51.440;6.938;2023-08-12T10:33:35;22.80;99.90
12436;DHT22;6282;51.440;6.938;2023-08-12T10:36:02;22.90;99.90
12436;DHT22;6282;51.440;6.938;2023-08-12T10:38:30;22.90;99.90
12436;DHT22;6282;51.440;6.938;2023-08-12T10:41:18;22.90;99.90
12436;DHT22;6282;51.440;6.938;2023-08-12T10:43:55;22.80;99.90
12436;DHT22;6282;51.440;6.938;2023-08-12T10:46:26;22.70;99.90
12436;DHT22;6282;51.440;6.938;2023-08-12T10:49:02;22.70;99.90
12436;DHT22;6282;51.440;6.938;2023-08-12T10:51:45;22.60;99.90
12436;DHT22;6282;51.440;6.938;2023-08-12T10:54:16;22.40;99.90
12436;DHT22;6282;51.440;6.938;2023-08-12T10:57:08;22.50;99.90
12436;DHT22;6282;51.440;6.938;2023-08-12T10:59:53;22.40;99.90
12436;DHT22;6282;51.440;6.938;2023-08-12T11:02:26;22.20;99.90
12436;DHT22;6282;51.440;6.938;2023-08-12T11:04:55;22.00;99.90
12436;DHT22;6282;51.440;6.938;2023-08-12T11:07:29;21.90;99.90
12436;DHT22;6282;51.440;6.938;2023-08-12T11:10:03;22.10;99.90
12436;DHT22;6282;51.440;6.938;2023-08-12T11:12:33;22.00;99.90
12436;DHT22;6282;51.440;6.938;2023-08-12T11:15:02;22.00;99.90
12436;DHT22;6282;51.440;6.938;2023-08-12T11:17:34;22.00;99.90
12436;DHT22;6282;51.440;6.938;2023-08-12T11:20:05;22.10;99.90
12436;DHT22;6282;51.440;6.938;2023-08-12T11:22:36;22.20;99.90
12436;DHT22;6282;51.440;6.938;2023-08-12T11:25:05;22.60;99.90
12436;DHT22;6282;51.440;6.938;2023-08-12T11:27:41;23.00;99.90
12436;DHT22;6282;51.440;6.938;2023-08-12T11:30:10;23.20;99.90
12436;DHT22;6282;51.440;6.938;2023-08-12T11:32:39;23.50;99.90
12436;DHT22;6282;51.440;6.938;2023-08-12T11:35:09;23.50;99.90
12436;DHT22;6282;51.440;6.938;2023-08-12T11:37:36;23.60;99.90
12436;DHT22;6282;51.440;6.938;2023-08-12T11:40:05;23.60;99.90
12436;DHT22;6282;51.440;6.938;2023-08-12T11:42:35;23.70;99.90
12436;DHT22;6282;51.440;6.938;2023-08-12T11:45:02;23.80;99.90
12436;DHT22;6282;51.440;6.938;2023-08-12T11:47:29;23.90;99.90
12436;DHT22;6282;51.440;6.938;2023-08-12T11:49:58;23.90;99.90
12436;DHT22;6282;51.440;6.938;2023-08-12T11:52:26;23.80;99.90
12436;DHT22;6282;51.440;6.938;2023-08-12T11:54:53;23.80;99.90
12436;DHT22;6282;51.440;6.938;2023-08-12T11:57:22;23.70;99.90
12436;DHT22;6282;51.440;6.938;2023-08-12T11:59:49;23.60;99.90
12436;DHT22;6282;51.440;6.938;2023-08-12T12:02:16;23.40;99.90
12436;DHT22;6282;51.440;6.938;2023-08-12T12:04:43;23.30;99.90
12436;DHT22;6282;51.440;6.938;2023-08-12T12:07:19;23.40;99.90
12436;DHT22;6282;51.440;6.938;2023-08-12T12:09:50;23.20;99.90
12436;DHT22;6282;51.440;6.938;2023-08-12T12:12:21;23.30;99.90
12436;DHT22;6282;51.440;6.938;2023-08-12T12:14:51;23.10;99.90
12436;DHT22;6282;51.440;6.938;2023-08-12T12:17:18;22.80;99.90
12436;DHT22;6282;51.440;6.938;2023-08-12T12:19:46;22.50;99.90
12436;DHT22;6282;51.440;6.938;2023-08-12T12:22:13;22.30;99.90
12436;DHT22;6282;51.440;6.938;2023-08-12T12:24:44;22.20;99.90
12436;DHT22;6282;51.440;6.938;2023-08-12T12:27:13;22.20;99.90
12436;DHT22;6282;51.440;6.938;2023-08-12T12:29:40;22.20;99.90
12436;DHT22;6282;51.440;6.938;2023-08-12T12:32:08;22.10;99.90
12436;DHT22;6282;51.440;6.938;2023-08-12T12:34:35;22.20;99.90
12436;DHT22;6282;51.440;6.938;2023-08-12T12:37:02;22.10;99.90
12436;DHT22;6282;51.440;6.938;2023-08-12T12:39:30;22.20;99.90
12436;DHT22;6282;51.440;6.938;2023-08-12T12:41:57;22.30;99.90
12436;DHT22;6282;51.440;6.938;2023-08-12T12:44:27;22.20;99.90
12436;DHT22;6282;51.440;6.938;2023-08-12T12:46:54;22.00;99.90
12436;DHT22;6282;51.440;6.938;2023-08-12T12:49:21;21.90;99.90
12436;DHT22;6282;51.440;6.938;2023-08-12T12:51:48;21.80;99.90
12436;DHT22;6282;51.440;6.938;2023-08-12T12:54:14;21.80;99.90
12436;DHT22;6282;51.440;6.938;2023-08-12T12:56:42;21.70;99.90
12436;DHT22;6282;51.440;6.938;2023-08-12T12:59:10;21.80;99.90
12436;DHT22;6282;51.440;6.938;2023-08-12T13:01:38;21.90;99.90
12436;DHT22;6282;51.440;6.938;2023-08-12T13:04:05;22.00;99.90
12436;DHT22;6282;51.440;6.938;2023-08-12T13:06:34;22.00;99.90
12436;DHT22;6282;51.440;6.938;2023-08-12T13:09:01;21.80;99.90
12436;DHT22;6282;51.440;6.938;2023-08-12T13:11:32;21.80;99.90
12436;DHT22;6282;51.440;6.938;2023-08-12T13:13:59;21.80;99.90
12436;DHT22;6282;51.440;6.938;2023-08-12T13:16:27;21.90;99.90
12436;DHT22;6282;51.440;6.938;2023-08-12T13:18:55;22.10;99.90
12436;DHT22;6282;51.440;6.938;2023-08-12T13:21:23;22.00;99.90
12436;DHT22;6282;51.440;6.938;2023-08-12T13:23:51;22.00;99.90
12436;DHT22;6282;51.440;6.938;2023-08-12T13:26:20;22.30;99.90
12436;DHT22;6282;51.440;6.938;2023-08-12T13:28:47;22.70;99.90
12436;DHT22;6282;51.440;6.938;2023-08-12T13:31:14;22.60;99.90
12436;DHT22;6282;51.440;6.938;2023-08-12T13:33:41;22.80;99.90
12436;DHT22;6282;51.440;6.938;2023-08-12T13:36:09;22.80;99.90
12436;DHT22;6282;51.440;6.938;2023-08-12T13:38:37;22.70;99.90
12436;DHT22;6282;51.440;6.938;2023-08-12T13:41:03;22.60;99.90
12436;DHT22;6282;51.440;6.938;2023-08-12T13:43:31;22.40;99.90
12436;DHT22;6282;51.440;6.938;2023-08-12T13:45:59;22.30;99.90
12436;DHT22;6282;51.440;6.938;2023-08-12T13:48:26;22.00;99.90
12436;DHT22;6282;51.440;6.938;2023-08-12T13:50:55;21.90;99.90
12436;DHT22;6282;51.440;6.938;2023-08-12T13:53:23;21.90;99.90
12436;DHT22;6282;51.440;6.938;2023-08-12T13:55:50;22.10;99.90
12436;DHT22;6282;51.440;6.938;2023-08-12T13:58:17;22.20;99.90
12436;DHT22;6282;51.440;6.938;2023-08-12T14:00:44;22.40;99.90
12436;DHT22;6282;51.440;6.938;2023-08-12T14:03:12;22.60;99.90
12436;DHT22;6282;51.440;6.938;2023-08-12T14:05:38;22.90;99.90
12436;DHT22;6282;51.440;6.938;2023-08-12T14:08:05;23.00;99.90
12436;DHT22;6282;51.440;6.938;2023-08-12T14:10:34;23.20;99.90
12436;DHT22;6282;51.440;6.938;2023-08-12T14:13:00;23.40;99.90
12436;DHT22;6282;51.440;6.938;2023-08-12T14:15:27;23.60;99.90
12436;DHT22;6282;51.440;6.938;2023-08-12T14:17:54;23.70;99.90
12436;DHT22;6282;51.440;6.938;2023-08-12T14:20:21;23.80;99.90
12436;DHT22;6282;51.440;6.938;2023-08-12T14:22:47;23.90;99.90
12436;DHT22;6282;51.440;6.938;2023-08-12T14:25:14;24.00;99.90
12436;DHT22;6282;51.440;6.938;2023-08-12T14:27:43;24.00;99.90
12436;DHT22;6282;51.440;6.938;2023-08-12T14:30:10;24.00;99.90
12436;DHT22;6282;51.440;6.938;2023-08-12T14:32:38;24.00;99.90
12436;DHT22;6282;51.440;6.938;2023-08-12T14:35:06;23.90;99.90
12436;DHT22;6282;51.440;6.938;2023-08-12T14:37:33;24.10;99.90
12436;DHT22;6282;51.440;6.938;2023-08-12T14:40:00;23.90;99.90
12436;DHT22;6282;51.440;6.938;2023-08-12T14:42:28;23.90;99.90
12436;DHT22;6282;51.440;6.938;2023-08-12T14:44:56;24.00;99.90
12436;DHT22;6282;51.440;6.938;2023-08-12T14:47:23;23.70;99.90
12436;DHT22;6282;51.440;6.938;2023-08-12T14:49:50;23.90;99.90
12436;DHT22;6282;51.440;6.938;2023-08-12T14:52:19;23.90;99.90
12436;DHT22;6282;51.440;6.938;2023-08-12T14:54:46;23.60;99.90
12436;DHT22;6282;51.440;6.938;2023-08-12T14:57:13;23.60;99.90
12436;DHT22;6282;51.440;6.938;2023-08-12T14:59:40;23.50;99.90
12436;DHT22;6282;51.440;6.938;2023-08-12T15:02:08;23.20;99.90
12436;DHT22;6282;51.440;6.938;2023-08-12T15:04:35;23.20;99.90
12436;DHT22;6282;51.440;6.938;2023-08-12T15:07:02;23.00;99.90
12436;DHT22;6282;51.440;6.938;2023-08-12T15:09:29;23.20;99.90
12436;DHT22;6282;51.440;6.938;2023-08-12T15:11:56;23.50;99.90
12436;DHT22;6282;51.440;6.938;2023-08-12T15:14:23;23.60;99.90
12436;DHT22;6282;51.440;6.938;2023-08-12T15:16:51;23.80;99.90
12436;DHT22;6282;51.440;6.938;2023-08-12T15:19:20;24.00;99.90
12436;DHT22;6282;51.440;6.938;2023-08-12T15:21:47;24.00;99.90
12436;DHT22;6282;51.440;6.938;2023-08-12T15:24:14;23.90;99.90
12436;DHT22;6282;51.440;6.938;2023-08-12T15:26:42;23.70;99.90
12436;DHT22;6282;51.440;6.938;2023-08-12T15:29:09;23.60;99.90
12436;DHT22;6282;51.440;6.938;2023-08-12T15:31:36;23.50;99.90
12436;DHT22;6282;51.440;6.938;2023-08-12T15:34:03;23.40;99.90
12436;DHT22;6282;51.440;6.938;2023-08-12T15:36:31;23.40;99.90
12436;DHT22;6282;51.440;6.938;2023-08-12T15:39:00;23.60;99.90
12436;DHT22;6282;51.440;6.938;2023-08-12T15:41:28;23.50;99.90
12436;DHT22;6282;51.440;6.938;2023-08-12T15:43:55;23.50;99.90
12436;DHT22;6282;51.440;6.938;2023-08-12T15:46:22;23.60;99.90
12436;DHT22;6282;51.440;6.938;2023-08-12T15:48:50;23.60;99.90
12436;DHT22;6282;51.440;6.938;2023-08-12T15:51:17;23.60;99.90